Time;durP1;ratioP1;P1;durP2;ratioP2;P2;SDS_P1;SDS_P2;PMS_P1;PMS_P2;Temp;Humidity;BMP_temperature;BMP_pressure;BME280_temperature;BME280_humidity;BME280_pressure;Samples;Min_cycle;Max_cycle;Signal;HPM_P1;HPM_P2
2022/09/30 00:01:13;;;;;;;6.23;2.93;;;;;;;12.24;72.76;99764.94;4991386;28;20270;-61
2022/09/30 00:03:42;;;;;;;6.73;3.00;;;;;;;12.20;73.04;99774.28;4990348;28;20691;-61
2022/09/30 00:06:10;;;;;;;5.60;2.97;;;;;;;12.19;73.11;99773.44;4990308;28;20269;-61
2022/09/30 00:08:38;;;;;;;5.10;2.93;;;;;;;12.15;73.10;99773.97;4989835;28;20206;-62
2022/09/30 00:11:12;;;;;;;4.80;2.93;;;;;;;12.26;73.05;99778.88;4991280;28;20241;-63
2022/09/30 00:13:40;;;;;;;8.73;3.63;;;;;;;12.25;72.79;99767.44;4991574;28;20207;-61
2022/09/30 00:16:09;;;;;;;6.60;2.57;;;;;;;12.28;72.53;99766.25;4991768;28;20220;-61
2022/09/30 00:18:38;;;;;;;5.10;2.93;;;;;;;12.26;72.49;99773.56;4991889;28;20214;-61
2022/09/30 00:21:09;;;;;;;6.03;3.13;;;;;;;12.22;72.84;99767.78;4990874;28;20643;-61
2022/09/30 00:23:37;;;;;;;6.63;2.43;;;;;;;12.21;73.05;99776.78;4991156;28;20233;-61
2022/09/30 00:26:10;;;;;;;5.60;2.70;;;;;;;12.22;73.11;99773.13;4988690;28;20213;-61
2022/09/30 00:28:39;;;;;;;5.20;2.73;;;;;;;12.18;73.14;99766.47;4991343;28;20241;-61
2022/09/30 00:31:10;;;;;;;4.63;2.47;;;;;;;12.20;73.42;99758.34;4990973;28;20206;-61
2022/09/30 00:33:38;;;;;;;6.10;2.97;;;;;;;12.13;73.34;99768.84;4991635;28;20239;-60
2022/09/30 00:36:06;;;;;;;9.97;3.13;;;;;;;12.16;72.86;99767.66;4990531;28;20214;-61
2022/09/30 00:38:34;;;;;;;6.10;2.87;;;;;;;12.13;73.22;99770.69;4991437;28;20214;-61
2022/09/30 00:41:03;;;;;;;5.77;2.40;;;;;;;12.14;72.73;99765.16;4990576;28;20218;-61
2022/09/30 00:43:45;;;;;;;6.33;2.77;;;;;;;12.09;73.75;99772.84;4991274;28;20292;-61
2022/09/30 00:46:19;;;;;;;6.67;2.50;;;;;;;12.03;74.41;99774.38;4991633;28;20229;-61
2022/09/30 00:48:52;;;;;;;7.13;2.90;;;;;;;12.06;74.34;99781.16;4991379;28;20206;-61
2022/09/30 00:51:26;;;;;;;5.97;2.60;;;;;;;12.05;75.28;99780.31;4982246;28;20712;-61
2022/09/30 00:53:57;;;;;;;6.03;2.63;;;;;;;12.09;75.05;99775.50;4991676;28;20206;-61
2022/09/30 00:56:28;;;;;;;6.30;2.40;;;;;;;12.13;75.51;99779.47;4989481;28;20206;-61
2022/09/30 00:59:04;;;;;;;4.50;2.57;;;;;;;12.19;75.72;99777.94;4991317;28;20712;-60
2022/09/30 01:01:32;;;;;;;6.23;2.53;;;;;;;12.21;75.33;99771.47;4991028;28;20667;-61
2022/09/30 01:04:03;;;;;;;4.33;2.53;;;;;;;12.24;75.02;99776.41;4989201;28;20226;-61
2022/09/30 01:06:30;;;;;;;5.40;2.73;;;;;;;12.26;75.05;99776.22;4990964;28;20281;-61
2022/09/30 01:08:58;;;;;;;6.50;2.80;;;;;;;12.29;74.58;99773.22;4988160;28;20240;-61
2022/09/30 01:11:27;;;;;;;5.57;2.80;;;;;;;12.29;75.06;99779.38;4987885;28;20244;-60
2022/09/30 01:14:00;;;;;;;4.33;2.77;;;;;;;12.37;74.70;99784.63;4990251;28;20241;-60
2022/09/30 01:16:41;;;;;;;4.00;2.23;;;;;;;12.34;74.62;99787.63;4991120;28;20210;-61
2022/09/30 01:19:31;;;;;;;4.87;2.57;;;;;;;12.32;75.05;99783.50;4989718;28;20905;-60
2022/09/30 01:22:13;;;;;;;9.53;2.70;;;;;;;12.36;74.61;99775.00;4983087;28;20256;-62
2022/09/30 01:25:06;;;;;;;5.57;2.60;;;;;;;12.39;74.72;99782.63;4978107;28;20624;-61
2022/09/30 01:27:56;;;;;;;4.77;1.90;;;;;;;12.42;74.45;99789.41;4990377;28;20218;-61
2022/09/30 01:30:48;;;;;;;6.03;2.20;;;;;;;12.40;74.88;99778.94;4990658;28;20215;-61
2022/09/30 01:33:27;;;;;;;9.67;3.50;;;;;;;12.50;74.74;99785.88;4986953;28;20638;-60
2022/09/30 01:36:08;;;;;;;4.13;2.23;;;;;;;12.59;74.57;99784.81;4985883;28;20739;-61
2022/09/30 01:38:47;;;;;;;10.20;3.13;;;;;;;12.66;73.78;99785.78;4989524;28;20658;-61
2022/09/30 01:41:25;;;;;;;4.93;2.30;;;;;;;12.59;74.41;99790.13;4987049;28;20268;-62
2022/09/30 01:44:04;;;;;;;3.87;2.00;;;;;;;12.50;74.42;99785.88;4990687;28;20265;-61
2022/09/30 01:46:42;;;;;;;4.80;2.20;;;;;;;12.48;74.27;99796.72;4990323;28;20256;-61
2022/09/30 01:49:19;;;;;;;6.13;2.57;;;;;;;12.47;74.17;99796.88;4988293;28;20770;-61
2022/09/30 01:51:56;;;;;;;4.20;2.10;;;;;;;12.43;74.43;99796.41;4994071;28;20229;-60
2022/09/30 01:54:30;;;;;;;4.83;2.20;;;;;;;12.37;74.21;99789.97;4994440;28;20240;-60
2022/09/30 01:57:06;;;;;;;5.97;3.10;;;;;;;12.34;74.48;99792.97;4994591;28;20606;-61
2022/09/30 01:59:37;;;;;;;7.33;2.97;;;;;;;12.45;74.17;99797.06;4994409;28;20218;-61
2022/09/30 02:02:12;;;;;;;6.20;2.43;;;;;;;12.52;73.80;99795.34;4992865;28;20206;-61
2022/09/30 02:04:45;;;;;;;4.33;2.07;;;;;;;12.50;73.22;99791.19;4994030;28;20237;-61
2022/09/30 02:07:19;;;;;;;5.60;2.00;;;;;;;12.41;72.96;99793.06;4991212;28;20262;-61
2022/09/30 02:09:51;;;;;;;4.70;2.27;;;;;;;12.33;73.35;99796.63;4991708;28;20221;-61
2022/09/30 02:12:22;;;;;;;4.87;2.10;;;;;;;12.28;73.41;99801.66;4993802;28;20323;-61
2022/09/30 02:14:55;;;;;;;5.37;2.50;;;;;;;12.30;73.29;99807.63;4994077;28;20271;-61
2022/09/30 02:17:28;;;;;;;5.13;2.20;;;;;;;12.37;73.10;99813.88;4993147;28;20618;-61
2022/09/30 02:20:00;;;;;;;4.87;2.07;;;;;;;12.34;73.03;99813.41;4985940;28;20601;-61
2022/09/30 02:22:32;;;;;;;7.43;2.60;;;;;;;12.34;73.05;99811.56;4993995;28;20277;-62
2022/09/30 02:25:05;;;;;;;3.93;2.17;;;;;;;12.33;72.93;99809.91;4993969;28;20242;-62
2022/09/30 02:27:41;;;;;;;4.57;2.23;;;;;;;12.28;73.15;99814.94;4993523;28;20207;-62
2022/09/30 02:30:12;;;;;;;4.90;2.10;;;;;;;12.23;73.23;99822.59;4992603;28;20205;-62
2022/09/30 02:32:46;;;;;;;5.27;1.83;;;;;;;12.23;72.93;99825.25;4993259;28;20292;-62
2022/09/30 02:35:19;;;;;;;4.73;2.23;;;;;;;12.20;73.23;99833.59;4993996;28;20241;-62
2022/09/30 02:37:51;;;;;;;5.20;2.53;;;;;;;12.18;73.26;99824.13;4993906;28;20288;-62
2022/09/30 02:40:24;;;;;;;3.80;1.90;;;;;;;12.16;73.13;99826.13;4992008;28;20209;-62
2022/09/30 02:42:52;;;;;;;4.80;2.43;;;;;;;12.18;73.18;99832.94;4993758;28;20206;-62
2022/09/30 02:45:22;;;;;;;5.00;3.00;;;;;;;12.28;72.24;99836.19;4991614;28;20239;-62
2022/09/30 02:48:04;;;;;;;6.13;2.50;;;;;;;12.21;72.34;99840.56;4992406;28;20214;-62
2022/09/30 02:50:37;;;;;;;4.87;2.80;;;;;;;12.11;72.87;99839.13;4992204;28;20222;-61
2022/09/30 02:53:18;;;;;;;4.00;2.20;;;;;;;11.99;73.57;99836.00;4992843;28;20260;-61
2022/09/30 02:56:01;;;;;;;3.93;2.27;;;;;;;11.98;73.35;99845.78;4992709;28;20214;-62
2022/09/30 02:58:29;;;;;;;5.37;2.67;;;;;;;11.88;73.45;99850.47;4993129;28;20233;-62
2022/09/30 03:00:57;;;;;;;5.37;2.27;;;;;;;11.83;73.91;99839.56;4990834;28;20643;-62
2022/09/30 03:03:30;;;;;;;4.10;2.20;;;;;;;11.87;74.06;99848.03;4988865;28;20293;-62
2022/09/30 03:05:58;;;;;;;5.53;2.20;;;;;;;11.84;74.12;99849.19;4982204;28;20229;-62
2022/09/30 03:08:26;;;;;;;3.97;2.33;;;;;;;11.76;74.08;99854.53;4993292;28;20214;-62
2022/09/30 03:10:54;;;;;;;5.63;2.50;;;;;;;11.76;74.23;99853.69;4992721;28;20727;-62
2022/09/30 03:13:50;;;;;;;5.47;2.30;;;;;;;11.77;74.33;99842.91;4993310;28;20646;-62
2022/09/30 03:16:26;;;;;;;4.87;2.47;;;;;;;11.80;74.01;99847.84;4960862;28;20217;-62
2022/09/30 03:19:10;;;;;;;3.80;2.00;;;;;;;11.80;74.16;99847.03;4993025;28;20198;-62
2022/09/30 03:21:54;;;;;;;4.20;2.27;;;;;;;11.89;73.15;99852.13;4990770;28;20206;-62
2022/09/30 03:24:45;;;;;;;3.53;2.17;;;;;;;11.96;73.04;99847.78;4979855;28;20252;-62
2022/09/30 03:27:22;;;;;;;7.80;2.43;;;;;;;11.99;72.47;99852.78;4988525;28;20206;-62
2022/09/30 03:30:01;;;;;;;6.23;2.20;;;;;;;12.00;72.22;99850.94;4991973;28;20225;-62
2022/09/30 03:32:48;;;;;;;5.07;2.60;;;;;;;11.97;72.58;99856.59;4992192;28;20243;-62
2022/09/30 03:35:26;;;;;;;5.43;2.50;;;;;;;11.84;72.90;99858.97;4992953;28;20647;-62
2022/09/30 03:38:01;;;;;;;4.30;2.30;;;;;;;11.77;73.24;99858.00;4992881;28;20249;-62
2022/09/30 03:40:37;;;;;;;6.27;2.70;;;;;;;11.70;73.45;99853.31;4990921;28;20658;-62
2022/09/30 03:43:14;;;;;;;3.37;2.13;;;;;;;11.63;73.87;99854.19;4991950;28;20204;-62
2022/09/30 03:45:46;;;;;;;3.40;2.30;;;;;;;11.64;73.58;99854.00;4992587;28;20240;-61
2022/09/30 03:48:16;;;;;;;5.43;2.57;;;;;;;11.57;73.78;99850.38;4979790;28;20206;-62
2022/09/30 03:50:45;;;;;;;7.47;2.30;;;;;;;11.50;74.10;99852.06;4991911;28;20268;-63
2022/09/30 03:53:13;;;;;;;6.73;3.33;;;;;;;11.53;73.85;99849.03;4991930;28;20217;-62
2022/09/30 03:55:47;;;;;;;6.03;2.90;;;;;;;11.50;73.63;99846.75;4992457;28;20260;-62
2022/09/30 03:58:15;;;;;;;5.23;2.70;;;;;;;11.46;73.95;99845.41;4990867;28;20624;-62
2022/09/30 04:00:48;;;;;;;4.83;3.00;;;;;;;11.40;73.97;99855.88;4988249;28;20210;-62
2022/09/30 04:03:15;;;;;;;10.97;2.90;;;;;;;11.27;74.36;99849.25;4992006;28;20633;-62
2022/09/30 04:05:45;;;;;;;5.07;2.53;;;;;;;11.33;74.27;99853.09;4991925;28;20301;-62
2022/09/30 04:08:12;;;;;;;4.43;2.40;;;;;;;11.40;73.62;99867.34;4992330;28;20229;-61
2022/09/30 04:10:41;;;;;;;4.73;2.07;;;;;;;11.43;73.48;99867.00;4989157;28;20209;-61
2022/09/30 04:13:09;;;;;;;4.37;2.43;;;;;;;11.54;72.96;99874.59;4984915;28;20207;-61
2022/09/30 04:15:37;;;;;;;5.20;2.30;;;;;;;11.39;73.01;99880.78;4991749;28;20295;-61
2022/09/30 04:18:05;;;;;;;4.93;2.43;;;;;;;11.30;73.67;99891.41;4991656;28;20276;-63
2022/09/30 04:20:32;;;;;;;4.43;2.30;;;;;;;11.31;73.95;99886.91;4991379;28;20704;-61
2022/09/30 04:23:02;;;;;;;4.17;2.33;;;;;;;11.29;73.42;99880.94;4991754;28;20211;-61
2022/09/30 04:25:30;;;;;;;4.83;2.30;;;;;;;11.25;73.36;99882.28;4992556;28;20239;-62
2022/09/30 04:27:57;;;;;;;5.03;1.87;;;;;;;11.18;73.66;99890.06;4983178;28;20624;-61
2022/09/30 04:30:25;;;;;;;6.20;2.40;;;;;;;11.15;74.18;99893.06;4989608;28;20215;-61
2022/09/30 04:32:59;;;;;;;5.60;2.50;;;;;;;11.13;74.02;99892.41;4985535;28;20240;-61
2022/09/30 04:35:28;;;;;;;4.53;2.50;;;;;;;11.17;73.76;99899.00;4991444;28;20216;-61
2022/09/30 04:37:56;;;;;;;4.07;2.43;;;;;;;11.07;73.77;99902.84;4991541;28;20710;-61
2022/09/30 04:40:25;;;;;;;3.37;2.10;;;;;;;10.99;74.21;99900.19;4989752;28;20315;-61
2022/09/30 04:42:57;;;;;;;8.37;2.63;;;;;;;10.98;74.04;99902.00;4991095;28;20293;-61
2022/09/30 04:45:24;;;;;;;5.07;2.50;;;;;;;10.86;74.36;99901.50;4990678;28;20220;-61
2022/09/30 04:47:52;;;;;;;4.90;1.90;;;;;;;10.89;74.46;99906.47;4991088;28;20212;-61
2022/09/30 04:50:20;;;;;;;4.00;2.43;;;;;;;10.88;74.09;99904.81;4991441;28;20791;-61
2022/09/30 04:52:47;;;;;;;6.13;2.80;;;;;;;10.87;74.00;99908.47;4991588;28;20863;-61
2022/09/30 04:55:15;;;;;;;8.37;2.70;;;;;;;10.85;74.11;99910.44;4991077;28;20227;-61
2022/09/30 04:57:45;;;;;;;4.83;2.70;;;;;;;10.84;74.18;99919.38;4989303;28;20258;-62
2022/09/30 05:00:13;;;;;;;5.07;2.90;;;;;;;10.84;74.10;99919.38;4985601;28;20230;-61
2022/09/30 05:02:43;;;;;;;6.07;2.70;;;;;;;10.89;73.55;99933.00;4991345;28;20216;-61
2022/09/30 05:05:11;;;;;;;5.67;3.30;;;;;;;10.94;73.36;99927.19;4991351;28;20608;-61
2022/09/30 05:07:39;;;;;;;7.67;3.53;;;;;;;10.97;73.46;99928.69;4990845;28;20229;-61
2022/09/30 05:10:09;;;;;;;6.83;3.67;;;;;;;10.88;73.63;99935.81;4991153;28;20250;-61
2022/09/30 05:12:36;;;;;;;7.97;3.60;;;;;;;10.82;74.10;99934.63;4991118;28;20779;-62
2022/09/30 05:15:06;;;;;;;6.20;3.53;;;;;;;10.82;74.31;99931.97;4991471;28;20214;-62
2022/09/30 05:17:34;;;;;;;8.80;3.57;;;;;;;10.78;74.42;99935.13;4988334;28;20208;-61
2022/09/30 05:20:02;;;;;;;6.73;3.53;;;;;;;10.78;74.38;99935.97;4991578;28;20240;-61
2022/09/30 05:22:30;;;;;;;10.20;4.57;;;;;;;10.76;74.45;99937.94;4993065;28;20218;-62
2022/09/30 05:24:57;;;;;;;10.43;4.97;;;;;;;10.70;74.82;99951.03;4995796;28;20207;-62
2022/09/30 05:27:26;;;;;;;7.50;4.70;;;;;;;10.71;74.91;99950.03;4989565;28;20229;-62
2022/09/30 05:29:54;;;;;;;8.87;4.77;;;;;;;10.86;74.18;99959.84;4992869;28;20212;-61
2022/09/30 05:32:24;;;;;;;11.53;4.37;;;;;;;10.92;73.56;99956.53;4994853;28;20794;-61
2022/09/30 05:34:54;;;;;;;9.73;4.57;;;;;;;11.02;72.81;99959.03;4995913;28;20208;-61
2022/09/30 05:37:21;;;;;;;10.77;4.83;;;;;;;11.03;72.94;99967.84;4996153;28;20971;-61
2022/09/30 05:39:49;;;;;;;8.23;4.47;;;;;;;10.80;73.54;99964.97;4993841;28;20227;-61
2022/09/30 05:42:17;;;;;;;11.70;5.03;;;;;;;10.72;74.19;99967.59;4993338;28;20665;-61
2022/09/30 05:44:45;;;;;;;8.50;4.50;;;;;;;10.69;74.28;99981.19;4995109;28;20204;-59
2022/09/30 05:47:12;;;;;;;8.47;4.67;;;;;;;10.74;74.21;99987.66;4989718;28;20599;-61
2022/09/30 05:49:41;;;;;;;6.70;4.77;;;;;;;10.77;74.14;99992.63;4994066;28;20283;-61
2022/09/30 05:52:10;;;;;;;11.77;5.27;;;;;;;10.73;74.41;99995.78;4994464;28;20218;-61
2022/09/30 05:54:39;;;;;;;12.90;4.87;;;;;;;10.69;74.82;100005.03;4994903;28;20211;-61
2022/09/30 05:57:07;;;;;;;10.47;5.07;;;;;;;10.74;74.56;100014.16;4993535;28;20650;-61
2022/09/30 05:59:36;;;;;;;9.07;4.83;;;;;;;10.75;74.16;100007.03;5002546;28;20265;-61
2022/09/30 06:02:04;;;;;;;9.67;4.70;;;;;;;10.79;74.11;100008.41;4989641;28;20270;-60
2022/09/30 06:04:32;;;;;;;8.53;4.70;;;;;;;10.83;73.62;100013.19;4995059;28;20246;-61
2022/09/30 06:07:01;;;;;;;13.30;4.43;;;;;;;10.89;73.48;100014.41;4994654;28;20716;-61
2022/09/30 06:09:35;;;;;;;13.57;5.13;;;;;;;10.89;73.30;100014.41;4994881;28;20720;-61
2022/09/30 06:12:02;;;;;;;9.47;4.57;;;;;;;10.86;73.27;100017.38;4991986;28;20278;-61
2022/09/30 06:14:30;;;;;;;9.20;4.50;;;;;;;10.77;73.77;100023.63;4994766;28;20278;-61
2022/09/30 06:16:59;;;;;;;9.73;3.77;;;;;;;10.84;73.49;100019.34;4989935;28;20203;-61
2022/09/30 06:19:29;;;;;;;7.37;4.37;;;;;;;11.01;72.55;100017.56;4993247;28;20879;-61
2022/09/30 06:21:58;;;;;;;12.30;4.73;;;;;;;11.10;72.29;100025.38;4988068;28;20206;-61
2022/09/30 06:24:27;;;;;;;7.27;4.80;;;;;;;11.18;72.12;100027.22;4994846;28;20256;-61
2022/09/30 06:26:54;;;;;;;8.57;5.00;;;;;;;11.14;72.11;100026.75;4992621;28;20691;-61
2022/09/30 06:29:22;;;;;;;12.10;5.60;;;;;;;11.01;72.80;100033.47;4994299;28;20215;-61
2022/09/30 06:31:50;;;;;;;8.97;5.23;;;;;;;11.04;73.16;100034.00;4993597;28;20228;-60
2022/09/30 06:34:17;;;;;;;11.30;5.13;;;;;;;11.19;72.84;100043.00;4993643;28;20215;-61
2022/09/30 06:36:45;;;;;;;11.73;4.90;;;;;;;11.21;72.74;100048.13;4993761;28;20210;-60
2022/09/30 06:39:13;;;;;;;7.63;4.47;;;;;;;11.23;72.41;100051.47;4991980;28;20216;-59
2022/09/30 06:41:42;;;;;;;9.50;4.43;;;;;;;11.21;71.98;100053.44;4987097;28;20209;-61
2022/09/30 06:44:11;;;;;;;6.70;4.00;;;;;;;11.18;72.28;100062.56;4976665;28;20720;-61
2022/09/30 06:46:39;;;;;;;5.80;3.87;;;;;;;11.30;71.86;100066.59;4997510;28;20220;-61
2022/09/30 06:49:20;;;;;;;5.93;3.77;;;;;;;11.41;71.30;100081.38;4993095;28;20693;-60
2022/09/30 06:51:48;;;;;;;7.60;3.87;;;;;;;11.41;71.63;100080.53;4993045;28;20208;-61
2022/09/30 06:54:16;;;;;;;8.77;4.30;;;;;;;11.36;71.41;100074.88;4992546;28;20658;-61
2022/09/30 06:56:46;;;;;;;7.00;3.97;;;;;;;11.34;71.59;100075.06;4992735;28;20213;-61
2022/09/30 06:59:15;;;;;;;9.17;4.13;;;;;;;11.35;71.53;100071.38;4992433;28;20674;-61
2022/09/30 07:01:44;;;;;;;8.67;4.70;;;;;;;11.38;72.08;100073.72;4992213;28;20207;-61
2022/09/30 07:04:11;;;;;;;8.90;4.77;;;;;;;11.39;72.30;100072.75;4993570;28;20293;-61
2022/09/30 07:06:40;;;;;;;9.13;4.70;;;;;;;11.45;72.00;100064.09;4992994;28;20613;-61
2022/09/30 07:09:10;;;;;;;9.73;5.10;;;;;;;11.46;72.08;100063.13;4991225;28;20207;-61
2022/09/30 07:11:38;;;;;;;8.27;5.03;;;;;;;11.55;71.96;100070.09;4989642;28;20227;-61
2022/09/30 07:14:09;;;;;;;9.17;5.00;;;;;;;11.62;71.84;100079.06;4992778;28;20215;-62
2022/09/30 07:16:37;;;;;;;10.03;5.90;;;;;;;11.74;71.73;100081.41;4992608;28;20216;-61
2022/09/30 07:19:07;;;;;;;10.00;5.20;;;;;;;11.76;71.81;100092.75;4992806;28;20544;-60
2022/09/30 07:21:35;;;;;;;12.70;6.23;;;;;;;11.77;71.72;100097.06;4991969;28;20280;-61
2022/09/30 07:24:04;;;;;;;10.50;6.80;;;;;;;11.76;71.72;100096.22;4991082;28;20210;-61
2022/09/30 07:26:32;;;;;;;10.83;6.57;;;;;;;11.74;72.26;100100.00;4985931;28;20583;-62
2022/09/30 07:29:00;;;;;;;13.63;6.73;;;;;;;11.74;72.33;100102.66;4992159;28;20455;-62
2022/09/30 07:31:29;;;;;;;9.77;6.30;;;;;;;11.73;72.51;100111.63;4991747;28;20233;-62
2022/09/30 07:34:02;;;;;;;11.13;6.23;;;;;;;11.85;72.17;100115.66;4992403;28;20304;-61
2022/09/30 07:36:30;;;;;;;8.10;5.90;;;;;;;11.92;72.21;100121.97;4995803;28;20718;-61
2022/09/30 07:39:04;;;;;;;9.30;6.37;;;;;;;11.97;72.47;100124.94;4988836;28;20218;-61
2022/09/30 07:41:35;;;;;;;14.07;6.30;;;;;;;12.02;72.62;100122.66;4991769;28;20842;-61
2022/09/30 07:44:05;;;;;;;11.37;6.70;;;;;;;12.13;72.25;100109.03;4992027;28;20226;-61
2022/09/30 07:46:37;;;;;;;11.43;6.07;;;;;;;12.29;71.80;100124.13;4990001;28;20251;-63
2022/09/30 07:49:08;;;;;;;10.50;6.53;;;;;;;12.38;70.76;100109.84;4989904;28;20268;-61
2022/09/30 07:51:38;;;;;;;15.03;6.90;;;;;;;12.34;70.82;100112.00;4988673;28;20221;-61
2022/09/30 07:54:08;;;;;;;10.47;6.30;;;;;;;12.40;70.88;100110.50;4992444;28;20226;-61
2022/09/30 07:56:37;;;;;;;12.63;6.87;;;;;;;12.45;71.01;100116.13;4992132;28;20260;-61
2022/09/30 07:59:26;;;;;;;14.57;6.73;;;;;;;12.54;70.86;100114.28;4991728;28;20293;-62
2022/09/30 08:01:55;;;;;;;11.23;7.33;;;;;;;12.59;70.37;100117.25;4989568;28;20205;-61
2022/09/30 08:04:24;;;;;;;13.07;6.97;;;;;;;12.62;70.46;100114.28;4991777;28;20648;-61
2022/09/30 08:06:53;;;;;;;13.23;7.40;;;;;;;12.95;69.38;100115.84;4990495;28;20218;-61
2022/09/30 08:09:23;;;;;;;12.57;7.43;;;;;;;13.42;66.92;100115.00;4992075;28;20782;-61
2022/09/30 08:11:51;;;;;;;14.87;8.17;;;;;;;13.69;65.50;100114.50;4990981;28;20249;-61
2022/09/30 08:14:21;;;;;;;12.20;7.37;;;;;;;13.71;65.71;100119.66;4991250;28;20214;-62
2022/09/30 08:16:49;;;;;;;15.03;7.37;;;;;;;13.62;66.40;100128.72;4991586;28;20237;-62
2022/09/30 08:19:23;;;;;;;12.93;7.60;;;;;;;13.43;66.17;100129.97;4990634;28;20214;-61
2022/09/30 08:21:52;;;;;;;13.53;7.33;;;;;;;13.22;66.80;100127.06;4990581;28;20230;-62
2022/09/30 08:24:21;;;;;;;12.23;7.77;;;;;;;13.12;67.63;100129.91;4986764;28;20300;-62
2022/09/30 08:26:49;;;;;;;13.00;7.50;;;;;;;13.01;68.19;100140.94;4989814;28;20210;-62
2022/09/30 08:29:17;;;;;;;12.37;7.97;;;;;;;13.00;68.50;100147.28;4990813;28;20370;-61
2022/09/30 08:31:51;;;;;;;16.27;9.73;;;;;;;13.05;68.88;100139.59;4991389;28;20315;-61
2022/09/30 08:34:21;;;;;;;16.73;9.47;;;;;;;13.31;68.50;100144.69;4991562;28;20210;-62
2022/09/30 08:36:48;;;;;;;12.93;8.97;;;;;;;13.79;67.19;100149.75;4991778;28;20218;-61
2022/09/30 08:39:16;;;;;;;14.90;8.90;;;;;;;14.32;64.91;100153.34;4990795;28;20214;-60
2022/09/30 08:42:01;;;;;;;19.53;8.13;;;;;;;14.60;62.96;100154.44;4989185;28;20661;-62
2022/09/30 08:44:50;;;;;;;11.93;8.47;;;;;;;14.95;61.60;100138.75;4990160;28;20735;-62
2022/09/30 08:47:38;;;;;;;10.40;7.77;;;;;;;15.14;61.09;100138.16;4991405;28;20217;-63
2022/09/30 08:50:20;;;;;;;12.37;8.33;;;;;;;16.08;59.15;100142.56;4990646;28;20671;-62
2022/09/30 08:52:52;;;;;;;14.70;8.27;;;;;;;19.79;48.46;100130.50;4991785;28;20581;-63
2022/09/30 08:55:22;;;;;;;10.30;7.17;;;;;;;23.42;40.76;100126.56;4983821;28;20733;-60
2022/09/30 08:57:52;;;;;;;12.07;6.57;;;;;;;25.03;37.02;100130.44;4993967;28;20620;-61
2022/09/30 09:00:21;;;;;;;8.15;6.65;;;;;;;26.90;34.42;100141.53;4994851;28;20210;-62
2022/09/30 09:02:51;;;;;;;10.90;7.38;;;;;;;28.02;32.07;100130.00;4994490;28;20214;-61
2022/09/30 09:05:30;;;;;;;11.82;6.72;;;;;;;30.09;29.02;100140.63;4995480;28;20713;-61
2022/09/30 09:08:04;;;;;;;10.98;7.40;;;;;;;31.20;27.26;100134.16;4995599;28;20212;-61
2022/09/30 09:10:40;;;;;;;11.35;6.75;;;;;;;29.86;28.85;100131.22;4993655;28;20214;-61
2022/09/30 09:13:18;;;;;;;7.75;6.00;;;;;;;28.31;30.72;100130.31;4995662;28;20206;-61
2022/09/30 09:15:58;;;;;;;10.38;6.30;;;;;;;25.99;33.88;100130.75;4994193;28;20206;-61
2022/09/30 09:18:50;;;;;;;9.30;7.00;;;;;;;24.87;35.77;100134.00;4992520;28;20216;-62
2022/09/30 09:21:26;;;;;;;11.55;7.13;;;;;;;25.51;34.45;100139.69;4993419;28;20214;-61
2022/09/30 09:23:57;;;;;;;13.77;6.68;;;;;;;26.37;33.56;100131.66;4993293;28;20197;-61
2022/09/30 09:26:27;;;;;;;12.63;7.03;;;;;;;25.96;34.46;100130.44;4988092;28;20225;-62
2022/09/30 09:29:08;;;;;;;8.40;6.43;;;;;;;25.84;33.75;100136.03;4990354;28;20238;-62
2022/09/30 09:31:36;;;;;;;10.32;6.72;;;;;;;26.24;33.39;100132.88;4993708;28;20234;-62
2022/09/30 09:34:09;;;;;;;8.82;6.93;;;;;;;25.77;33.84;100128.06;4994205;28;20245;-62
2022/09/30 09:36:52;;;;;;;9.90;6.20;;;;;;;25.65;33.89;100130.13;4993663;28;20270;-62
2022/09/30 09:39:48;;;;;;;11.52;8.20;;;;;;;25.15;34.88;100134.94;4992718;28;20210;-62
2022/09/30 09:42:31;;;;;;;12.32;7.10;;;;;;;26.11;33.75;100133.31;4988047;28;20214;-62
2022/09/30 09:45:02;;;;;;;10.35;6.43;;;;;;;27.01;32.29;100139.69;4993012;28;20206;-62
2022/09/30 09:47:30;;;;;;;11.05;7.47;;;;;;;25.82;33.91;100141.72;4994611;28;20206;-62
2022/09/30 09:50:03;;;;;;;14.20;7.15;;;;;;;23.64;36.93;100145.72;4993667;28;20300;-62
2022/09/30 09:52:58;;;;;;;10.18;7.40;;;;;;;21.44;40.76;100150.63;4994329;28;20242;-62
2022/09/30 09:55:25;;;;;;;9.65;7.10;;;;;;;20.13;43.78;100152.69;4984305;28;20222;-62
2022/09/30 09:58:05;;;;;;;16.10;7.88;;;;;;;19.38;46.17;100151.59;4992582;28;20272;-62
2022/09/30 10:03:22;;;;;;;13.30;7.20;;;;;;;18.06;49.20;100162.47;4993967;28;20248;-61
2022/09/30 10:06:01;;;;;;;12.33;6.97;;;;;;;17.63;50.67;100160.09;4994125;28;20260;-62
2022/09/30 10:08:32;;;;;;;10.07;6.93;;;;;;;17.33;51.75;100155.22;4993308;28;20254;-61
2022/09/30 10:11:02;;;;;;;9.10;7.13;;;;;;;17.04;52.94;100157.13;4994614;28;20391;-62
2022/09/30 10:13:31;;;;;;;11.33;7.20;;;;;;;16.79;53.97;100148.72;4993446;28;20272;-61
2022/09/30 10:16:00;;;;;;;10.30;6.97;;;;;;;16.65;54.78;100149.63;4981546;28;20207;-61
2022/09/30 10:18:32;;;;;;;11.53;7.70;;;;;;;16.88;55.28;100155.59;4993004;28;20221;-62
2022/09/30 10:21:02;;;;;;;11.93;7.30;;;;;;;17.64;53.02;100156.38;4990403;28;20210;-61
2022/09/30 10:23:33;;;;;;;14.07;8.27;;;;;;;18.58;51.42;100150.13;4994270;28;20396;-62
2022/09/30 10:26:04;;;;;;;12.87;6.80;;;;;;;19.27;48.33;100139.63;4991525;28;20606;-61
2022/09/30 10:28:35;;;;;;;9.73;6.60;;;;;;;18.65;48.78;100142.88;4989526;28;20214;-62
2022/09/30 10:31:06;;;;;;;10.10;5.50;;;;;;;18.06;50.09;100143.69;4992658;28;20277;-62
2022/09/30 10:33:41;;;;;;;11.87;5.90;;;;;;;17.73;50.83;100140.09;4992868;28;20250;-62
2022/09/30 10:36:14;;;;;;;8.63;5.00;;;;;;;17.49;51.20;100136.91;4992391;28;20218;-62
2022/09/30 10:38:57;;;;;;;9.63;5.73;;;;;;;17.25;51.71;100132.06;4987688;28;20206;-62
2022/09/30 10:41:33;;;;;;;9.63;5.50;;;;;;;17.35;52.03;100132.53;4992631;28;20210;-62
2022/09/30 10:44:03;;;;;;;8.77;4.57;;;;;;;17.43;51.86;100126.97;4987602;28;20210;-62
2022/09/30 10:46:35;;;;;;;8.20;5.73;;;;;;;17.46;52.34;100131.94;4993633;28;20257;-62
2022/09/30 10:49:09;;;;;;;11.43;5.70;;;;;;;17.48;52.40;100127.22;4990706;28;20366;-62
2022/09/30 10:51:38;;;;;;;10.00;4.70;;;;;;;17.52;52.21;100133.00;4990192;28;20583;-62
2022/09/30 10:54:07;;;;;;;9.83;5.80;;;;;;;17.41;52.78;100131.75;4993263;28;20206;-61
2022/09/30 10:56:41;;;;;;;14.33;5.30;;;;;;;17.34;53.56;100138.06;4992771;28;20301;-60
2022/09/30 10:59:30;;;;;;;10.87;5.67;;;;;;;17.60;52.48;100130.97;4993516;28;20281;-62
2022/09/30 11:02:07;;;;;;;7.60;4.77;;;;;;;18.27;51.13;100132.78;4991663;28;20202;-61
2022/09/30 11:04:39;;;;;;;10.10;4.80;;;;;;;18.73;48.14;100129.25;4992423;28;20670;-62
2022/09/30 11:07:16;;;;;;;11.23;4.90;;;;;;;18.97;47.38;100133.13;4992859;28;20218;-62
2022/09/30 11:09:53;;;;;;;7.63;4.30;;;;;;;19.64;46.15;100124.59;4992941;28;20268;-62
2022/09/30 11:12:28;;;;;;;9.13;4.73;;;;;;;21.82;42.01;100115.22;4992540;28;20205;-62
2022/09/30 11:15:04;;;;;;;8.00;4.13;;;;;;;23.35;37.92;100106.13;4992224;28;20209;-63
2022/09/30 11:17:38;;;;;;;7.50;4.90;;;;;;;23.42;37.78;100104.91;4992846;28;20690;-62
2022/09/30 11:20:13;;;;;;;6.95;4.45;;;;;;;22.72;39.41;100115.84;4991259;28;20268;-62
2022/09/30 11:22:49;;;;;;;8.13;4.50;;;;;;;22.36;39.93;100126.88;4979472;28;20392;-62
2022/09/30 11:25:25;;;;;;;6.95;4.07;;;;;;;22.54;39.68;100124.06;4985218;28;20265;-62
2022/09/30 11:28:03;;;;;;;13.35;4.57;;;;;;;23.03;38.83;100127.38;4987934;28;20245;-62
2022/09/30 11:30:38;;;;;;;6.90;3.30;;;;;;;23.45;37.86;100125.28;4991443;28;20233;-63
2022/09/30 11:33:20;;;;;;;9.93;3.30;;;;;;;24.21;35.77;100115.88;4991011;28;20643;-63
2022/09/30 11:35:57;;;;;;;6.15;2.85;;;;;;;23.98;36.09;100124.94;4992647;28;20217;-63
2022/09/30 11:38:42;;;;;;;6.18;2.50;;;;;;;23.99;36.17;100123.88;4992588;28;20205;-63
2022/09/30 11:41:22;;;;;;;12.90;3.22;;;;;;;23.29;37.53;100123.31;4991791;28;20225;-63
2022/09/30 11:44:00;;;;;;;4.15;2.10;;;;;;;22.28;38.80;100119.94;4991916;28;20694;-62
2022/09/30 11:46:59;;;;;;;4.47;1.92;;;;;;;21.35;39.99;100117.75;4987842;28;20209;-62
2022/09/30 11:49:51;;;;;;;4.63;2.20;;;;;;;20.85;41.06;100113.50;4990070;28;20234;-61
2022/09/30 11:52:28;;;;;;;3.67;1.92;;;;;;;20.75;41.40;100113.22;4983881;28;20218;-63
2022/09/30 11:55:07;;;;;;;6.90;2.03;;;;;;;21.22;40.91;100114.38;4991943;28;20256;-62